Terminal Aerodrome Forecast
Issued by NWS

Home | Current Version | Previous Version | Text Only | Print | Product List | Glossary On
Versions: 1 2 3 4 5 6 7 8 9 10 11 12 13
353
FTUS45 KABQ 022341
TAFROW
TAF
KROW 022341Z 0300/0324 01010KT P6SM OVC030
     FM030200 02013KT P6SM VCSH OVC020
     FM030600 01016KT 4SM -RA BR OVC012
     FM031900 36011KT 5SM -RA OVC020=

USA.gov is the U.S. government's official web portal to all federal, state and local government web resources and services.